Time;durP1;ratioP1;P1;durP2;ratioP2;P2;SDS_P1;SDS_P2;PMS_P1;PMS_P2;Temp;Humidity;BMP_temperature;BMP_pressure;BME280_temperature;BME280_humidity;BME280_pressure;Samples;Min_cycle;Max_cycle;Signal;HPM_P1;HPM_P2
2023/12/20 06:41:35;;;;;;;;;4.00;3.00;;;;;;;;5101910;22;45436;-78
2023/12/20 06:44:00;;;;;;;;;7.50;6.00;;;;;;;;5078147;27;45487;-77
2023/12/20 06:46:26;;;;;;;;;4.50;2.00;;;;;;;;5075545;27;45364;-79
2023/12/20 06:48:51;;;;;;;;;8.75;3.75;;;;;;;;5079869;27;45156;-78
2023/12/20 06:51:16;;;;;;;;;3.00;3.00;;;;;;;;5074179;27;45384;-78
2023/12/20 06:53:42;;;;;;;;;3.75;3.75;;;;;;;;5080490;28;44906;-83
2023/12/20 06:56:07;;;;;;;;;4.25;3.25;;;;;;;;5075892;27;45413;-81
2023/12/20 06:58:32;;;;;;;;;6.00;6.00;;;;;;;;5075008;28;45509;-82
2023/12/20 07:00:58;;;;;;;;;8.00;5.50;;;;;;;;5070723;28;45227;-84
2023/12/20 07:03:23;;;;;;;;;6.00;3.00;;;;;;;;5079878;27;44820;-83
2023/12/20 07:05:48;;;;;;;;;9.00;6.00;;;;;;;;5070209;28;45458;-82
2023/12/20 07:08:14;;;;;;;;;6.50;6.50;;;;;;;;5080183;28;44727;-82
2023/12/20 07:10:39;;;;;;;;;6.75;4.00;;;;;;;;5073197;28;45265;-83
2023/12/20 07:13:05;;;;;;;;;6.25;6.25;;;;;;;;5078507;28;44929;-83
2023/12/20 07:15:30;;;;;;;;;6.25;4.50;;;;;;;;5076524;27;45572;-83
2023/12/20 07:17:55;;;;;;;;;6.25;6.25;;;;;;;;5080216;27;45415;-82
2023/12/20 07:20:20;;;;;;;;;2.75;2.75;;;;;;;;5078275;27;45484;-81
2023/12/20 07:22:45;;;;;;;;;3.25;3.25;;;;;;;;5080536;27;44902;-81
2023/12/20 07:25:10;;;;;;;;;6.75;4.00;;;;;;;;5078152;27;45416;-81
2023/12/20 07:27:36;;;;;;;;;7.25;6.00;;;;;;;;5080364;28;45332;-77
2023/12/20 07:30:01;;;;;;;;;7.25;3.25;;;;;;;;5077695;28;45420;-78
2023/12/20 07:32:27;;;;;;;;;6.50;4.00;;;;;;;;5080164;27;45505;-80
2023/12/20 07:34:53;;;;;;;;;7.00;3.50;;;;;;;;5078287;28;45526;-79
2023/12/20 07:37:18;;;;;;;;;8.00;3.75;;;;;;;;5072543;27;45314;-80
2023/12/20 07:39:43;;;;;;;;;5.25;4.50;;;;;;;;5079217;27;45278;-77
2023/12/20 07:42:09;;;;;;;;;7.25;6.50;;;;;;;;5079129;28;45485;-78
2023/12/20 07:44:35;;;;;;;;;11.25;7.50;;;;;;;;5078526;27;46006;-84
2023/12/20 07:47:01;;;;;;;;;6.00;6.00;;;;;;;;5075569;28;45281;-82
2023/12/20 07:49:26;;;;;;;;;11.00;8.50;;;;;;;;5075353;28;44851;-82
2023/12/20 07:51:51;;;;;;;;;8.00;6.50;;;;;;;;5076649;28;45513;-84
2023/12/20 07:54:16;;;;;;;;;9.50;6.75;;;;;;;;5078015;27;45449;-81
2023/12/20 07:56:41;;;;;;;;;7.00;6.25;;;;;;;;5074642;28;45176;-81
2023/12/20 07:59:07;;;;;;;;;6.25;5.75;;;;;;;;5078663;27;45268;-81
2023/12/20 08:01:32;;;;;;;;;5.50;3.50;;;;;;;;5075382;28;44835;-81
2023/12/20 08:03:57;;;;;;;;;10.25;10.25;;;;;;;;5081084;27;45516;-82
2023/12/20 08:06:22;;;;;;;;;10.50;8.00;;;;;;;;5082193;28;45448;-81
2023/12/20 08:08:47;;;;;;;;;10.75;8.75;;;;;;;;5082592;28;45155;-80
2023/12/20 08:11:13;;;;;;;;;7.25;7.00;;;;;;;;5074531;28;46070;-81
2023/12/20 08:13:38;;;;;;;;;7.50;7.50;;;;;;;;5082393;28;46429;-81
2023/12/20 08:16:04;;;;;;;;;10.50;7.00;;;;;;;;5075318;28;45364;-81
2023/12/20 08:18:29;;;;;;;;;9.25;7.75;;;;;;;;5079248;28;45287;-81
2023/12/20 08:20:54;;;;;;;;;10.75;7.50;;;;;;;;5075372;28;45303;-82
2023/12/20 08:23:20;;;;;;;;;13.25;7.00;;;;;;;;5076623;27;45480;-82
2023/12/20 08:25:46;;;;;;;;;9.25;6.75;;;;;;;;5070838;28;44812;-81
2023/12/20 08:28:11;;;;;;;;;13.25;10.25;;;;;;;;5075217;28;45282;-81
2023/12/20 08:30:36;;;;;;;;;17.25;11.75;;;;;;;;5071983;28;45806;-81
2023/12/20 08:33:02;;;;;;;;;10.50;7.00;;;;;;;;5074546;28;46463;-81
2023/12/20 08:35:27;;;;;;;;;11.00;9.00;;;;;;;;5073464;28;45549;-80
2023/12/20 08:37:52;;;;;;;;;17.00;10.00;;;;;;;;5075183;28;46903;-80
2023/12/20 08:40:18;;;;;;;;;9.00;9.00;;;;;;;;5074549;27;45499;-81
2023/12/20 08:42:43;;;;;;;;;8.75;8.25;;;;;;;;5074664;28;45568;-82
2023/12/20 08:45:09;;;;;;;;;5.00;4.00;;;;;;;;5072946;27;45299;-82
2023/12/20 08:47:34;;;;;;;;;6.00;6.00;;;;;;;;5079742;27;45321;-81
2023/12/20 08:50:00;;;;;;;;;13.50;7.00;;;;;;;;5079580;28;45302;-80
2023/12/20 08:52:27;;;;;;;;;9.00;7.75;;;;;;;;5077940;28;47430;-83
2023/12/20 08:54:53;;;;;;;;;10.50;9.00;;;;;;;;5076798;28;45426;-79
2023/12/20 08:57:20;;;;;;;;;9.25;7.00;;;;;;;;5081461;28;45397;-82
2023/12/20 08:59:46;;;;;;;;;12.50;9.00;;;;;;;;5078350;28;44814;-82
2023/12/20 09:02:12;;;;;;;;;7.00;5.50;;;;;;;;5082288;27;45382;-80
2023/12/20 09:04:37;;;;;;;;;6.75;4.50;;;;;;;;5075800;28;45342;-79
2023/12/20 09:07:02;;;;;;;;;3.50;2.50;;;;;;;;5082394;28;45411;-79
2023/12/20 09:09:28;;;;;;;;;4.00;3.00;;;;;;;;5080168;28;45670;-82
2023/12/20 09:11:53;;;;;;;;;6.75;6.00;;;;;;;;5081529;28;45492;-82
2023/12/20 09:14:18;;;;;;;;;6.75;6.50;;;;;;;;5080758;28;45517;-83
2023/12/20 09:16:44;;;;;;;;;7.50;4.75;;;;;;;;5082724;27;45282;-84
2023/12/20 09:19:09;;;;;;;;;4.00;4.00;;;;;;;;5082227;28;45298;-84
2023/12/20 09:21:34;;;;;;;;;7.50;3.50;;;;;;;;5082194;28;45551;-80
2023/12/20 09:23:59;;;;;;;;;5.00;3.25;;;;;;;;5082316;28;44780;-81
2023/12/20 09:26:24;;;;;;;;;9.50;3.75;;;;;;;;5076834;28;45412;-81
2023/12/20 09:28:50;;;;;;;;;3.00;3.00;;;;;;;;5073511;27;45373;-80
2023/12/20 09:31:15;;;;;;;;;7.00;3.50;;;;;;;;5075567;28;46949;-80
2023/12/20 09:33:40;;;;;;;;;3.25;3.25;;;;;;;;5082108;27;44673;-80
2023/12/20 09:36:05;;;;;;;;;7.00;5.25;;;;;;;;5078398;28;45420;-82
2023/12/20 09:38:31;;;;;;;;;4.25;2.75;;;;;;;;5082143;27;45452;-79
2023/12/20 09:40:56;;;;;;;;;4.00;3.00;;;;;;;;5076475;27;45650;-87
2023/12/20 09:43:23;;;;;;;;;9.75;3.25;;;;;;;;5082557;27;45202;-77
2023/12/20 09:45:52;;;;;;;;;2.50;2.25;;;;;;;;5075135;28;45389;-77
2023/12/20 09:48:18;;;;;;;;;4.00;3.00;;;;;;;;5081773;27;44789;-77
2023/12/20 09:50:44;;;;;;;;;3.00;3.00;;;;;;;;5090160;27;46552;-77
2023/12/20 09:53:11;;;;;;;;;9.00;4.75;;;;;;;;5079157;28;45405;-77
2023/12/20 09:55:37;;;;;;;;;3.75;3.00;;;;;;;;5072714;27;45548;-77
2023/12/20 09:58:03;;;;;;;;;3.50;2.00;;;;;;;;5079431;27;45346;-77
2023/12/20 10:00:28;;;;;;;;;8.75;4.00;;;;;;;;5074352;27;45480;-77
2023/12/20 10:02:57;;;;;;;;;7.00;4.50;;;;;;;;5080351;28;45441;-77
2023/12/20 10:05:26;;;;;;;;;3.00;3.00;;;;;;;;5073892;28;45472;-77
2023/12/20 10:07:51;;;;;;;;;3.00;2.25;;;;;;;;5079825;28;45325;-77
2023/12/20 10:10:16;;;;;;;;;4.00;2.25;;;;;;;;5073249;28;46601;-77
2023/12/20 10:13:00;;;;;;;;;3.50;2.00;;;;;;;;5081343;28;45334;-77
2023/12/20 10:15:25;;;;;;;;;3.00;3.00;;;;;;;;5078349;28;45409;-77
2023/12/20 10:17:51;;;;;;;;;4.00;4.00;;;;;;;;5079157;27;45619;-77
2023/12/20 10:20:16;;;;;;;;;2.00;1.25;;;;;;;;5076873;28;47098;-77
2023/12/20 10:22:41;;;;;;;;;14.50;9.00;;;;;;;;5080640;27;45284;-77
2023/12/20 10:25:07;;;;;;;;;11.25;8.25;;;;;;;;5077628;28;45217;-77
2023/12/20 10:27:33;;;;;;;;;9.25;4.75;;;;;;;;5081449;27;45269;-77
2023/12/20 10:29:58;;;;;;;;;6.25;4.50;;;;;;;;5077876;28;47243;-77
2023/12/20 10:32:27;;;;;;;;;5.50;5.50;;;;;;;;5081199;28;45372;-77
2023/12/20 10:34:53;;;;;;;;;8.00;4.25;;;;;;;;5079989;28;45697;-77
2023/12/20 10:37:19;;;;;;;;;3.00;3.00;;;;;;;;5081103;28;45383;-77
2023/12/20 10:39:49;;;;;;;;;9.50;3.25;;;;;;;;5079227;27;45293;-77
2023/12/20 10:42:15;;;;;;;;;3.00;3.00;;;;;;;;5075751;27;45227;-77
2023/12/20 10:44:40;;;;;;;;;3.50;3.00;;;;;;;;5077071;28;45386;-77
2023/12/20 10:47:06;;;;;;;;;5.75;4.00;;;;;;;;5075601;28;47043;-77
2023/12/20 10:49:35;;;;;;;;;3.75;2.25;;;;;;;;5077944;27;45393;-78
2023/12/20 10:52:02;;;;;;;;;5.50;4.00;;;;;;;;5076746;28;45278;-77
2023/12/20 10:54:27;;;;;;;;;6.00;2.75;;;;;;;;5078148;27;45215;-77
2023/12/20 10:56:53;;;;;;;;;6.50;3.00;;;;;;;;5075938;28;45172;-77
2023/12/20 10:59:19;;;;;;;;;8.25;4.50;;;;;;;;5078310;27;45387;-77
2023/12/20 11:01:45;;;;;;;;;5.50;4.50;;;;;;;;5075994;28;45294;-77
2023/12/20 11:04:15;;;;;;;;;5.50;3.25;;;;;;;;5078948;27;45233;-77
2023/12/20 11:06:56;;;;;;;;;3.50;3.50;;;;;;;;5078327;28;45491;-77
2023/12/20 11:09:21;;;;;;;;;2.75;2.75;;;;;;;;5065803;28;46471;-77
2023/12/20 11:12:01;;;;;;;;;3.80;2.20;;;;;;;;5077088;27;45668;-76
2023/12/20 11:14:45;;;;;;;;;7.50;5.25;;;;;;;;5076852;28;45291;-77
2023/12/20 11:17:15;;;;;;;;;5.00;2.75;;;;;;;;5077447;28;45513;-77
2023/12/20 11:19:52;;;;;;;;;9.00;4.25;;;;;;;;5077214;28;45393;-77
2023/12/20 11:22:21;;;;;;;;;6.25;3.00;;;;;;;;5076635;28;45394;-77
2023/12/20 11:24:46;;;;;;;;;6.00;4.75;;;;;;;;5077954;28;45321;-76
2023/12/20 11:27:12;;;;;;;;;3.25;2.00;;;;;;;;5079901;28;45244;-78
2023/12/20 11:29:38;;;;;;;;;7.00;4.00;;;;;;;;5075699;28;47286;-78
2023/12/20 11:32:24;;;;;;;;;4.75;3.50;;;;;;;;5079423;28;45242;-81
2023/12/20 11:34:50;;;;;;;;;5.25;2.25;;;;;;;;5077777;28;45222;-79
2023/12/20 11:37:15;;;;;;;;;2.75;2.00;;;;;;;;5073025;27;45265;-77
2023/12/20 11:39:42;;;;;;;;;6.50;3.75;;;;;;;;5078664;27;45199;-78
2023/12/20 11:42:09;;;;;;;;;1.00;1.00;;;;;;;;5074770;27;45345;-79
2023/12/20 11:44:36;;;;;;;;;4.00;3.75;;;;;;;;5078983;27;45324;-79
2023/12/20 11:47:01;;;;;;;;;6.00;5.00;;;;;;;;5078415;28;44830;-78
2023/12/20 11:49:29;;;;;;;;;3.50;3.00;;;;;;;;5082990;27;45575;-78
2023/12/20 11:51:54;;;;;;;;;13.00;8.00;;;;;;;;5089744;27;45263;-78
2023/12/20 11:54:19;;;;;;;;;4.75;4.00;;;;;;;;5079692;27;45234;-77
2023/12/20 11:56:44;;;;;;;;;10.25;6.00;;;;;;;;5078108;28;44823;-80
2023/12/20 11:59:11;;;;;;;;;3.25;3.25;;;;;;;;5079091;27;45279;-80
2023/12/20 12:01:36;;;;;;;;;5.75;2.75;;;;;;;;5076190;28;45862;-79
2023/12/20 12:04:05;;;;;;;;;5.75;4.75;;;;;;;;5078960;27;45628;-81
2023/12/20 12:06:30;;;;;;;;;6.00;4.50;;;;;;;;5076644;28;45522;-77
2023/12/20 12:08:55;;;;;;;;;6.00;5.00;;;;;;;;5078959;27;45562;-76
2023/12/20 12:11:21;;;;;;;;;13.25;9.25;;;;;;;;5073584;28;45457;-75
2023/12/20 12:13:46;;;;;;;;;7.00;6.00;;;;;;;;5079115;27;45302;-75
2023/12/20 12:16:11;;;;;;;;;16.75;9.00;;;;;;;;5076104;28;45495;-78
2023/12/20 12:18:36;;;;;;;;;13.00;10.75;;;;;;;;5077903;27;45388;-76
2023/12/20 12:21:05;;;;;;;;;14.25;9.50;;;;;;;;5072101;28;45385;-78
2023/12/20 12:23:30;;;;;;;;;38.25;31.00;;;;;;;;5079927;28;45323;-79
2023/12/20 12:25:55;;;;;;;;;8.25;4.75;;;;;;;;5079557;27;45613;-80
2023/12/20 12:28:20;;;;;;;;;26.00;21.00;;;;;;;;5082346;27;45197;-80
2023/12/20 12:30:58;;;;;;;;;17.75;11.75;;;;;;;;5080695;28;45290;-79
2023/12/20 12:33:24;;;;;;;;;28.75;21.00;;;;;;;;5081655;27;45401;-79
2023/12/20 12:35:49;;;;;;;;;9.75;6.25;;;;;;;;5075048;28;45370;-78
2023/12/20 12:38:15;;;;;;;;;30.50;19.00;;;;;;;;5081442;28;47096;-78
2023/12/20 12:40:43;;;;;;;;;16.00;11.50;;;;;;;;5075329;28;44858;-78
2023/12/20 12:43:08;;;;;;;;;26.25;19.50;;;;;;;;5082717;28;45378;-79
2023/12/20 12:45:33;;;;;;;;;17.00;14.50;;;;;;;;5073596;28;45666;-78
2023/12/20 12:47:59;;;;;;;;;39.25;27.75;;;;;;;;5081027;28;47063;-80
2023/12/20 12:50:24;;;;;;;;;15.75;11.50;;;;;;;;5076630;28;45439;-79
2023/12/20 12:52:49;;;;;;;;;7.25;2.25;;;;;;;;5080753;28;45276;-79
2023/12/20 12:55:14;;;;;;;;;10.50;6.25;;;;;;;;5075648;28;45266;-79
2023/12/20 12:57:39;;;;;;;;;8.50;6.00;;;;;;;;5082722;27;45614;-81
2023/12/20 13:00:08;;;;;;;;;18.25;13.25;;;;;;;;5075869;27;45342;-80
2023/12/20 13:02:33;;;;;;;;;10.50;5.00;;;;;;;;5081182;28;45363;-80
2023/12/20 13:04:59;;;;;;;;;10.50;4.75;;;;;;;;5077342;28;45289;-81
2023/12/20 13:07:24;;;;;;;;;8.00;7.00;;;;;;;;5082557;28;45329;-82
2023/12/20 13:09:49;;;;;;;;;6.50;3.00;;;;;;;;5075999;28;45310;-80
2023/12/20 13:12:14;;;;;;;;;7.75;7.25;;;;;;;;5082440;28;45261;-81
2023/12/20 13:14:40;;;;;;;;;6.00;5.00;;;;;;;;5079449;28;45712;-81
2023/12/20 13:17:06;;;;;;;;;6.00;5.25;;;;;;;;5079076;27;46972;-82
2023/12/20 13:19:31;;;;;;;;;4.00;3.00;;;;;;;;5080325;27;45290;-82
2023/12/20 13:21:58;;;;;;;;;4.00;2.25;;;;;;;;5081679;27;45295;-82
2023/12/20 13:24:23;;;;;;;;;5.25;4.00;;;;;;;;5080490;28;45211;-80
2023/12/20 13:26:48;;;;;;;;;2.75;2.75;;;;;;;;5081909;27;45473;-80
2023/12/20 13:29:13;;;;;;;;;3.50;1.00;;;;;;;;5080822;28;45380;-80
2023/12/20 13:31:39;;;;;;;;;4.00;2.00;;;;;;;;5081847;28;45265;-80
2023/12/20 13:34:05;;;;;;;;;4.00;4.00;;;;;;;;5080370;28;44954;-82
2023/12/20 13:36:30;;;;;;;;;2.00;2.00;;;;;;;;5075113;27;45342;-80
2023/12/20 13:38:55;;;;;;;;;2.00;1.00;;;;;;;;5082417;27;44743;-81
2023/12/20 13:41:21;;;;;;;;;4.00;2.00;;;;;;;;5076440;28;45156;-81
2023/12/20 13:43:46;;;;;;;;;2.67;1.00;;;;;;;;5082539;28;45937;-79
2023/12/20 13:46:11;;;;;;;;;5.25;1.50;;;;;;;;5076254;28;46761;-79
2023/12/20 13:48:36;;;;;;;;;0.00;0.00;;;;;;;;5083552;27;44757;-79
2023/12/20 13:51:02;;;;;;;;;2.33;0.67;;;;;;;;5077098;27;45353;-80
2023/12/20 13:53:28;;;;;;;;;2.00;1.00;;;;;;;;5083118;28;45345;-79
2023/12/20 13:55:53;;;;;;;;;2.00;1.00;;;;;;;;5077341;28;45400;-79
2023/12/20 13:58:20;;;;;;;;;1.00;1.00;;;;;;;;5079751;28;44806;-78
2023/12/20 14:00:45;;;;;;;;;2.00;2.00;;;;;;;;5078049;28;45236;-77
2023/12/20 14:03:10;;;;;;;;;3.50;1.75;;;;;;;;5081580;27;45413;-77
2023/12/20 14:05:35;;;;;;;;;2.00;0.50;;;;;;;;5079439;28;45346;-76
2023/12/20 14:08:00;;;;;;;;;4.00;1.00;;;;;;;;5077037;27;45292;-84
2023/12/20 14:10:29;;;;;;;;;3.75;3.00;;;;;;;;5079236;28;45256;-76
2023/12/20 14:12:55;;;;;;;;;4.00;2.00;;;;;;;;5081183;27;45161;-76
2023/12/20 14:15:20;;;;;;;;;2.75;0.00;;;;;;;;5075805;28;45641;-76
2023/12/20 14:17:45;;;;;;;;;4.00;3.00;;;;;;;;5076857;28;45196;-75
2023/12/20 14:20:14;;;;;;;;;18.50;15.75;;;;;;;;5078166;28;45215;-76
2023/12/20 14:22:43;;;;;;;;;18.75;15.75;;;;;;;;5080673;27;45523;-77
2023/12/20 14:25:11;;;;;;;;;18.50;13.75;;;;;;;;5078999;28;45478;-76
2023/12/20 14:27:36;;;;;;;;;22.25;16.00;;;;;;;;5075121;28;45457;-76
2023/12/20 14:30:01;;;;;;;;;14.50;12.75;;;;;;;;5074817;28;45418;-76
2023/12/20 14:32:27;;;;;;;;;21.50;15.00;;;;;;;;5074440;28;46129;-77
2023/12/20 14:34:54;;;;;;;;;16.25;14.00;;;;;;;;5079286;28;45360;-76
2023/12/20 14:37:19;;;;;;;;;21.25;12.25;;;;;;;;5077263;27;45440;-77
2023/12/20 14:39:45;;;;;;;;;7.25;4.75;;;;;;;;5076967;28;45599;-77
2023/12/20 14:42:13;;;;;;;;;3.75;3.75;;;;;;;;5077578;28;44874;-76
2023/12/20 14:44:38;;;;;;;;;4.00;3.00;;;;;;;;5077605;28;45543;-76
2023/12/20 14:47:04;;;;;;;;;3.00;3.00;;;;;;;;5076102;28;45297;-76
2023/12/20 14:49:29;;;;;;;;;1.00;1.00;;;;;;;;5078674;28;45244;-77
2023/12/20 14:51:54;;;;;;;;;4.00;1.00;;;;;;;;5075917;28;45538;-77
2023/12/20 14:54:20;;;;;;;;;3.00;3.00;;;;;;;;5078457;28;45302;-77
2023/12/20 14:56:46;;;;;;;;;7.25;3.00;;;;;;;;5076992;27;45306;-77
2023/12/20 14:59:11;;;;;;;;;4.00;4.00;;;;;;;;5079455;28;45168;-77
2023/12/20 15:01:36;;;;;;;;;7.00;4.25;;;;;;;;5073132;28;45291;-77
2023/12/20 15:04:01;;;;;;;;;4.25;3.75;;;;;;;;5078749;28;47182;-77
2023/12/20 15:06:27;;;;;;;;;4.50;3.00;;;;;;;;5077010;28;45352;-77
2023/12/20 15:08:52;;;;;;;;;2.50;2.50;;;;;;;;5080516;28;45396;-77
2023/12/20 15:11:17;;;;;;;;;2.00;2.00;;;;;;;;5076973;27;45338;-77
2023/12/20 15:13:42;;;;;;;;;4.00;2.25;;;;;;;;5078523;27;45328;-77
2023/12/20 15:16:09;;;;;;;;;6.25;4.00;;;;;;;;5073467;28;45408;-77
2023/12/20 15:18:34;;;;;;;;;10.25;8.25;;;;;;;;5094791;27;45321;-77
2023/12/20 15:20:59;;;;;;;;;8.25;4.00;;;;;;;;5068855;28;45453;-77
2023/12/20 15:23:26;;;;;;;;;9.25;7.75;;;;;;;;5078587;28;46776;-76
2023/12/20 15:25:51;;;;;;;;;5.00;5.00;;;;;;;;5077663;28;45340;-77
2023/12/20 15:28:16;;;;;;;;;3.75;3.00;;;;;;;;5080230;28;45309;-77
2023/12/20 15:30:41;;;;;;;;;3.00;3.00;;;;;;;;5074065;28;45599;-77
2023/12/20 15:33:07;;;;;;;;;4.50;3.00;;;;;;;;5079635;27;45296;-77
2023/12/20 15:35:32;;;;;;;;;3.50;3.50;;;;;;;;5071774;28;45681;-77
2023/12/20 15:37:58;;;;;;;;;3.75;2.75;;;;;;;;5079541;28;45483;-77
2023/12/20 15:40:23;;;;;;;;;3.50;2.00;;;;;;;;5071590;28;45908;-77
2023/12/20 15:42:48;;;;;;;;;3.00;1.00;;;;;;;;5079532;27;45200;-77
2023/12/20 15:45:14;;;;;;;;;2.50;1.00;;;;;;;;5074305;28;45187;-78
2023/12/20 15:47:39;;;;;;;;;2.00;2.00;;;;;;;;5079941;27;45225;-78
2023/12/20 15:50:06;;;;;;;;;3.50;3.00;;;;;;;;5074006;28;45211;-78
2023/12/20 15:52:31;;;;;;;;;4.00;2.50;;;;;;;;5079089;28;45433;-77
2023/12/20 15:54:56;;;;;;;;;3.25;2.00;;;;;;;;5074505;27;45315;-77
2023/12/20 15:57:21;;;;;;;;;2.25;1.25;;;;;;;;5078584;28;45323;-78
2023/12/20 15:59:46;;;;;;;;;5.75;1.00;;;;;;;;5076132;27;45197;-77
2023/12/20 16:02:12;;;;;;;;;2.00;2.00;;;;;;;;5078068;28;45428;-78
2023/12/20 16:04:37;;;;;;;;;0.75;0.00;;;;;;;;5077182;28;45072;-77
2023/12/20 16:07:02;;;;;;;;;1.50;1.00;;;;;;;;5075546;28;45424;-77
2023/12/20 16:09:27;;;;;;;;;4.50;2.00;;;;;;;;5076986;27;45276;-79
2023/12/20 16:11:53;;;;;;;;;3.00;2.00;;;;;;;;5087462;27;46911;-76
2023/12/20 16:14:19;;;;;;;;;11.25;6.25;;;;;;;;5077282;27;45566;-76
2023/12/20 16:16:44;;;;;;;;;4.50;3.50;;;;;;;;5076971;28;45890;-78
2023/12/20 16:19:10;;;;;;;;;4.00;3.00;;;;;;;;5074506;27;45321;-75
2023/12/20 16:21:35;;;;;;;;;3.00;2.75;;;;;;;;5071961;28;46004;-75
2023/12/20 16:24:01;;;;;;;;;3.50;3.50;;;;;;;;5069309;27;46271;-77
2023/12/20 16:26:27;;;;;;;;;5.00;3.00;;;;;;;;5087287;27;45460;-79
2023/12/20 16:28:52;;;;;;;;;4.00;2.25;;;;;;;;5069902;27;45220;-79
2023/12/20 16:31:17;;;;;;;;;3.00;3.00;;;;;;;;5074704;28;45481;-80
2023/12/20 16:33:42;;;;;;;;;3.50;3.00;;;;;;;;5069115;28;45788;-79
2023/12/20 16:36:07;;;;;;;;;4.25;3.00;;;;;;;;5073713;28;45193;-79
2023/12/20 16:38:33;;;;;;;;;4.00;4.00;;;;;;;;5070630;27;45224;-80
2023/12/20 16:40:58;;;;;;;;;3.75;3.25;;;;;;;;5072088;28;45227;-79
2023/12/20 16:43:24;;;;;;;;;4.75;2.00;;;;;;;;5075107;28;45453;-80
2023/12/20 16:45:49;;;;;;;;;3.50;2.00;;;;;;;;5073779;28;46287;-80
2023/12/20 16:48:14;;;;;;;;;5.00;3.25;;;;;;;;5076904;28;45623;-79
2023/12/20 16:50:39;;;;;;;;;8.00;6.00;;;;;;;;5074750;27;45379;-78
2023/12/20 16:53:04;;;;;;;;;5.75;4.00;;;;;;;;5078232;27;45547;-78
2023/12/20 16:55:30;;;;;;;;;5.75;3.00;;;;;;;;5075710;28;45284;-80
2023/12/20 16:57:56;;;;;;;;;3.00;1.25;;;;;;;;5078923;27;45377;-80
2023/12/20 17:00:22;;;;;;;;;3.50;2.75;;;;;;;;5074199;28;45433;-80
2023/12/20 17:02:47;;;;;;;;;3.00;3.00;;;;;;;;5070944;28;44811;-80
2023/12/20 17:05:12;;;;;;;;;1.00;1.00;;;;;;;;5073337;28;45324;-80
2023/12/20 17:07:38;;;;;;;;;4.00;3.00;;;;;;;;5069968;27;45501;-80
2023/12/20 17:10:03;;;;;;;;;2.00;2.00;;;;;;;;5076386;28;45352;-80
2023/12/20 17:12:28;;;;;;;;;7.00;4.50;;;;;;;;5080576;28;45435;-80
2023/12/20 17:14:53;;;;;;;;;3.50;2.00;;;;;;;;5079985;27;45556;-80
2023/12/20 17:17:19;;;;;;;;;16.25;13.50;;;;;;;;5079435;27;45328;-80
2023/12/20 17:19:44;;;;;;;;;6.00;4.25;;;;;;;;5075448;28;46819;-80
2023/12/20 17:22:10;;;;;;;;;3.75;3.75;;;;;;;;5079443;28;45521;-81
2023/12/20 17:24:35;;;;;;;;;2.25;2.25;;;;;;;;5077410;28;45461;-80
2023/12/20 17:27:01;;;;;;;;;1.50;1.50;;;;;;;;5080623;28;45976;-80
2023/12/20 17:29:27;;;;;;;;;1.25;1.25;;;;;;;;5093005;27;46631;-80
2023/12/20 17:31:52;;;;;;;;;4.50;2.75;;;;;;;;5080004;28;45426;-79
2023/12/20 17:34:17;;;;;;;;;11.25;4.00;;;;;;;;5078187;28;45278;-79
2023/12/20 17:36:43;;;;;;;;;3.00;2.25;;;;;;;;5075466;27;45526;-80
2023/12/20 17:39:09;;;;;;;;;3.00;3.00;;;;;;;;5078375;28;45258;-80
2023/12/20 17:41:35;;;;;;;;;6.75;6.75;;;;;;;;5077866;27;45362;-79
2023/12/20 17:44:01;;;;;;;;;9.00;5.25;;;;;;;;5083835;27;45208;-81
2023/12/20 17:46:26;;;;;;;;;5.25;4.50;;;;;;;;5075320;28;45396;-81
2023/12/20 17:48:51;;;;;;;;;5.25;5.25;;;;;;;;5082971;28;45244;-80
2023/12/20 17:51:16;;;;;;;;;4.50;3.00;;;;;;;;5077261;27;45540;-80
2023/12/20 17:53:41;;;;;;;;;3.75;3.75;;;;;;;;5082068;27;45566;-79
2023/12/20 17:56:07;;;;;;;;;3.25;1.00;;;;;;;;5074612;27;45463;-78
2023/12/20 17:58:32;;;;;;;;;3.50;3.50;;;;;;;;5078913;28;47358;-79
2023/12/20 18:00:57;;;;;;;;;7.00;4.50;;;;;;;;5089071;27;44862;-79
2023/12/20 18:03:24;;;;;;;;;5.00;4.00;;;;;;;;5079338;28;44871;-76
2023/12/20 18:05:49;;;;;;;;;2.00;2.00;;;;;;;;5070073;28;45402;-76
2023/12/20 18:08:14;;;;;;;;;5.25;3.75;;;;;;;;5073066;28;45442;-76
2023/12/20 18:10:40;;;;;;;;;4.25;3.25;;;;;;;;5078633;28;45293;-76
2023/12/20 18:13:05;;;;;;;;;3.75;3.75;;;;;;;;5080893;28;45362;-75
2023/12/20 18:15:30;;;;;;;;;8.50;5.00;;;;;;;;5077382;28;45481;-76
2023/12/20 18:17:56;;;;;;;;;5.00;4.00;;;;;;;;5081860;28;45289;-76
2023/12/20 18:20:21;;;;;;;;;4.75;3.50;;;;;;;;5078518;28;45503;-76
2023/12/20 18:22:46;;;;;;;;;4.50;4.00;;;;;;;;5081734;28;46034;-75
2023/12/20 18:25:11;;;;;;;;;4.25;4.00;;;;;;;;5078984;27;45196;-75
2023/12/20 18:27:37;;;;;;;;;4.50;4.25;;;;;;;;5083386;27;45413;-75
2023/12/20 18:30:05;;;;;;;;;5.25;3.00;;;;;;;;5074776;28;45398;-75
2023/12/20 18:32:34;;;;;;;;;6.75;5.50;;;;;;;;5072742;28;44760;-76
2023/12/20 18:34:59;;;;;;;;;6.50;4.25;;;;;;;;5079443;28;45385;-75
2023/12/20 18:37:24;;;;;;;;;5.00;4.00;;;;;;;;5079584;28;46258;-75
2023/12/20 18:39:50;;;;;;;;;7.50;4.50;;;;;;;;5077505;28;44688;-75
2023/12/20 18:42:16;;;;;;;;;6.25;4.75;;;;;;;;5080762;28;45235;-75
2023/12/20 18:44:41;;;;;;;;;14.00;8.25;;;;;;;;5078069;27;45278;-77
2023/12/20 18:47:06;;;;;;;;;5.50;5.50;;;;;;;;5079821;28;46575;-75
2023/12/20 18:49:31;;;;;;;;;8.50;7.00;;;;;;;;5077936;28;45321;-76
2023/12/20 18:51:57;;;;;;;;;12.25;11.00;;;;;;;;5078709;28;45333;-76
2023/12/20 18:54:22;;;;;;;;;9.50;7.00;;;;;;;;5076769;28;46097;-76
2023/12/20 18:56:49;;;;;;;;;5.75;5.75;;;;;;;;5076977;28;47780;-75
2023/12/20 18:59:17;;;;;;;;;6.75;6.75;;;;;;;;5078923;28;45300;-75
2023/12/20 19:01:42;;;;;;;;;6.75;6.00;;;;;;;;5074642;28;45168;-75
2023/12/20 19:04:07;;;;;;;;;8.25;5.00;;;;;;;;5079282;28;45203;-75
2023/12/20 19:06:32;;;;;;;;;4.50;4.25;;;;;;;;5075535;28;46631;-76
2023/12/20 19:08:57;;;;;;;;;6.25;5.00;;;;;;;;5078751;28;45484;-76
2023/12/20 19:11:23;;;;;;;;;7.00;7.00;;;;;;;;5077896;28;45463;-75
2023/12/20 19:13:48;;;;;;;;;7.75;6.00;;;;;;;;5067835;28;45310;-76
2023/12/20 19:16:13;;;;;;;;;6.00;6.00;;;;;;;;5075654;28;46827;-76
2023/12/20 19:18:38;;;;;;;;;4.25;4.25;;;;;;;;5074145;27;45382;-76
2023/12/20 19:21:07;;;;;;;;;5.75;5.75;;;;;;;;5067127;28;45275;-77
2023/12/20 19:23:33;;;;;;;;;5.00;5.00;;;;;;;;5078830;28;45957;-76
2023/12/20 19:25:58;;;;;;;;;5.50;4.00;;;;;;;;5073387;27;45342;-76
2023/12/20 19:28:24;;;;;;;;;7.75;4.50;;;;;;;;5080400;28;45316;-77
2023/12/20 19:30:49;;;;;;;;;13.75;11.00;;;;;;;;5074961;28;45199;-77
2023/12/20 19:33:14;;;;;;;;;5.75;5.50;;;;;;;;5079052;27;44876;-77
2023/12/20 19:35:39;;;;;;;;;5.75;5.75;;;;;;;;5074073;27;45675;-76
2023/12/20 19:38:04;;;;;;;;;5.75;5.00;;;;;;;;5081351;28;45227;-77
2023/12/20 19:40:30;;;;;;;;;7.75;6.75;;;;;;;;5077469;27;44898;-78
2023/12/20 19:42:55;;;;;;;;;8.75;6.50;;;;;;;;5082252;28;45987;-77
2023/12/20 19:45:20;;;;;;;;;9.50;9.50;;;;;;;;5074002;28;47286;-78
2023/12/20 19:47:49;;;;;;;;;10.00;5.75;;;;;;;;5081382;27;45237;-80
2023/12/20 19:50:14;;;;;;;;;3.00;3.00;;;;;;;;5076812;27;45274;-77
2023/12/20 19:52:39;;;;;;;;;7.25;4.25;;;;;;;;5080272;28;44812;-77
2023/12/20 19:55:05;;;;;;;;;50.75;36.25;;;;;;;;5074958;27;45373;-75
2023/12/20 19:57:30;;;;;;;;;21.25;13.25;;;;;;;;5079470;28;45258;-76
2023/12/20 19:59:56;;;;;;;;;8.50;6.25;;;;;;;;5075088;27;45535;-76
2023/12/20 20:02:21;;;;;;;;;14.25;12.75;;;;;;;;5073452;28;45596;-77
2023/12/20 20:04:46;;;;;;;;;19.00;16.50;;;;;;;;5076215;27;46367;-76
2023/12/20 20:07:14;;;;;;;;;13.00;10.00;;;;;;;;5076666;27;44800;-76
2023/12/20 20:09:39;;;;;;;;;28.25;22.75;;;;;;;;5075151;27;45354;-77
2023/12/20 20:12:04;;;;;;;;;11.75;11.00;;;;;;;;5076977;28;44781;-76
2023/12/20 20:14:30;;;;;;;;;5.75;4.00;;;;;;;;5077432;27;45491;-77
2023/12/20 20:16:55;;;;;;;;;5.00;3.75;;;;;;;;5079117;28;45270;-77
2023/12/20 20:19:20;;;;;;;;;2.00;2.00;;;;;;;;5070511;27;44763;-76
2023/12/20 20:21:46;;;;;;;;;2.25;2.25;;;;;;;;5077425;28;46142;-77
2023/12/20 20:24:11;;;;;;;;;5.50;5.50;;;;;;;;5078319;28;45218;-77
2023/12/20 20:26:36;;;;;;;;;13.00;12.00;;;;;;;;5070322;28;45318;-76
2023/12/20 20:29:02;;;;;;;;;5.00;3.00;;;;;;;;5079257;27;45199;-77
2023/12/20 20:31:31;;;;;;;;;2.75;2.75;;;;;;;;5077268;28;45144;-76
2023/12/20 20:33:56;;;;;;;;;1.25;1.25;;;;;;;;5077816;28;47042;-77
2023/12/20 20:36:21;;;;;;;;;1.00;1.00;;;;;;;;5071434;28;45490;-78
2023/12/20 20:38:47;;;;;;;;;3.25;3.00;;;;;;;;5079244;27;45424;-76
2023/12/20 20:41:12;;;;;;;;;0.50;0.50;;;;;;;;5074505;27;45454;-77
2023/12/20 20:43:37;;;;;;;;;2.00;2.00;;;;;;;;5075198;28;46754;-77
2023/12/20 20:46:02;;;;;;;;;1.00;1.00;;;;;;;;5078772;27;45421;-78
2023/12/20 20:48:27;;;;;;;;;5.00;3.00;;;;;;;;5082961;28;45425;-78
2023/12/20 20:50:55;;;;;;;;;2.25;2.00;;;;;;;;5079999;27;45370;-78
2023/12/20 20:53:22;;;;;;;;;7.00;4.75;;;;;;;;5083403;28;45191;-76
